createdAt,value
2023-04-16T00:01:27.391Z,100547.47
2023-04-16T00:03:55.334Z,100624.53
2023-04-16T00:06:23.265Z,100498.34
2023-04-16T00:08:55.679Z,100640.69
2023-04-16T00:11:37.092Z,100642.84
2023-04-16T00:14:05.852Z,100639.06
2023-04-16T00:16:32.738Z,100640.72
2023-04-16T00:18:59.483Z,100618.34
2023-04-16T00:21:26.755Z,100635.97
2023-04-16T00:24:08.446Z,100637.13
2023-04-16T00:26:35.525Z,100631.25
2023-04-16T00:29:02.529Z,100625.03
2023-04-16T00:31:30.993Z,100575.66
2023-04-16T00:33:58.832Z,100503.06
2023-04-16T00:36:29.942Z,100562.25
2023-04-16T00:38:57.256Z,100591.34
2023-04-16T00:41:24.235Z,100568.53
2023-04-16T00:43:56.130Z,100602.47
2023-04-16T00:46:24.279Z,100639.31
2023-04-16T00:48:58.479Z,100624.06
2023-04-16T00:51:39.450Z,100633.66
2023-04-16T00:54:06.814Z,100640.59
2023-04-16T00:56:43.731Z,100640.41
2023-04-16T00:59:13.081Z,100568.34
2023-04-16T01:01:42.942Z,100636.59
2023-04-16T01:04:54.727Z,100644.50
2023-04-16T01:07:21.588Z,100623.81
2023-04-16T01:09:51.352Z,100633.41
2023-04-16T01:12:18.079Z,100630.75
2023-04-16T01:14:44.939Z,100588.88
2023-04-16T01:17:12.244Z,100644.50
2023-04-16T01:19:42.707Z,100644.50
2023-04-16T01:24:51.062Z,100617.28
2023-04-16T01:27:20.789Z,100629.59
2023-04-16T01:29:47.532Z,100583.50
2023-04-16T01:32:20.790Z,100625.84
2023-04-16T01:34:47.732Z,100643.03
2023-04-16T01:37:17.221Z,100617.19
2023-04-16T01:39:53.037Z,100604.94
2023-04-16T01:42:22.716Z,100644.44
2023-04-16T01:44:49.478Z,100642.59
2023-04-16T01:47:19.812Z,100626.13
2023-04-16T01:49:51.065Z,100647.09
2023-04-16T01:52:31.846Z,100652.44
2023-04-16T01:55:00.536Z,100652.50
2023-04-16T01:57:34.000Z,100656.25
2023-04-16T02:00:00.775Z,100653.44
2023-04-16T02:02:36.902Z,100657.50
2023-04-16T02:05:09.772Z,100660.03
2023-04-16T02:07:41.770Z,100631.22
2023-04-16T02:10:10.357Z,100664.63
2023-04-16T02:12:37.146Z,100620.88
2023-04-16T02:15:07.707Z,100664.19
2023-04-16T02:17:34.480Z,100643.38
2023-04-16T02:20:08.680Z,100630.38
2023-04-16T02:22:35.532Z,100642.97
2023-04-16T02:25:02.345Z,100644.84
2023-04-16T02:27:29.136Z,100649.28
2023-04-16T02:29:55.917Z,100659.94
2023-04-16T02:32:25.872Z,100662.19
2023-04-16T02:34:52.626Z,100637.59
2023-04-16T02:37:30.799Z,100677.00
2023-04-16T02:39:57.974Z,100674.78
2023-04-16T02:42:24.754Z,100682.59
2023-04-16T02:44:58.140Z,100649.75
2023-04-16T02:47:26.085Z,100675.22
2023-04-16T02:50:01.752Z,100678.44
2023-04-16T02:52:28.669Z,100673.81
2023-04-16T02:54:57.280Z,100676.88
2023-04-16T02:57:24.011Z,100674.09
2023-04-16T02:59:50.729Z,100638.31
2023-04-16T03:02:19.361Z,100661.25
2023-04-16T03:04:55.774Z,100684.34
2023-04-16T03:07:22.520Z,100691.19
2023-04-16T03:09:49.443Z,100688.97
2023-04-16T03:12:23.464Z,100661.81
2023-04-16T03:14:53.166Z,100657.34
2023-04-16T03:17:21.255Z,100695.53
2023-04-16T03:19:48.192Z,100695.41
2023-04-16T03:22:14.973Z,100696.13
2023-04-16T03:24:46.189Z,100655.97
2023-04-16T03:27:13.497Z,100633.59
2023-04-16T03:29:40.286Z,100692.34
2023-04-16T03:32:12.579Z,100682.97
2023-04-16T03:34:42.896Z,100687.56
2023-04-16T03:37:12.171Z,100689.53
2023-04-16T03:39:41.809Z,100711.09
2023-04-16T03:42:16.193Z,100716.69
2023-04-16T03:44:43.170Z,100693.59
2023-04-16T03:47:09.922Z,100589.41
2023-04-16T03:49:36.616Z,100695.28
2023-04-16T03:52:03.359Z,100701.88
2023-04-16T03:54:30.068Z,100668.00
2023-04-16T03:56:57.233Z,100713.19
2023-04-16T03:59:23.993Z,100589.13
2023-04-16T04:01:54.032Z,100694.19
2023-04-16T04:04:24.190Z,100717.25
2023-04-16T04:06:50.987Z,100707.75
2023-04-16T04:09:17.703Z,100725.78
2023-04-16T04:11:44.477Z,100683.09
2023-04-16T04:14:15.220Z,100640.56
2023-04-16T04:16:44.018Z,100659.63
2023-04-16T04:19:11.030Z,100693.75
2023-04-16T04:21:41.863Z,100677.66
2023-04-16T04:24:08.648Z,100729.56
2023-04-16T04:26:35.409Z,100713.34
2023-04-16T04:29:02.204Z,100721.19
2023-04-16T04:31:44.942Z,100729.28
2023-04-16T04:34:11.846Z,100759.66
2023-04-16T04:36:38.627Z,100727.88
2023-04-16T04:39:06.256Z,100764.56
2023-04-16T04:41:38.852Z,100773.66
2023-04-16T04:44:05.743Z,100773.94
2023-04-16T04:46:32.618Z,100742.28
2023-04-16T04:48:59.413Z,100751.09
2023-04-16T04:51:27.224Z,100789.75
2023-04-16T04:53:53.939Z,100776.03
2023-04-16T04:56:21.028Z,100764.56
2023-04-16T04:58:47.792Z,100794.78
2023-04-16T05:01:19.756Z,100750.13
2023-04-16T05:03:47.179Z,100796.78
2023-04-16T05:06:14.096Z,100799.56
2023-04-16T05:08:40.866Z,100713.59
2023-04-16T05:11:07.630Z,100758.97
2023-04-16T05:13:47.131Z,100800.41
2023-04-16T05:16:14.368Z,100770.16
2023-04-16T05:18:41.618Z,100768.63
2023-04-16T05:21:08.412Z,100821.25
2023-04-16T05:23:35.169Z,100804.31
2023-04-16T05:26:01.951Z,100831.19
2023-04-16T05:28:35.768Z,100829.53
2023-04-16T05:31:10.323Z,100834.56
2023-04-16T05:33:52.570Z,100790.72
2023-04-16T05:36:44.138Z,100792.38
2023-04-16T05:39:11.530Z,100838.22
2023-04-16T05:41:38.745Z,100818.59
2023-04-16T05:44:08.113Z,100825.91
2023-04-16T05:46:43.283Z,100800.41
2023-04-16T05:49:19.189Z,100830.41
2023-04-16T05:51:50.880Z,100843.84
2023-04-16T05:54:17.849Z,100802.38
2023-04-16T05:56:46.028Z,100705.34
2023-04-16T05:59:16.242Z,100851.28
2023-04-16T06:01:43.383Z,100842.16
2023-04-16T06:04:11.589Z,100862.63
2023-04-16T06:06:41.873Z,100855.06
2023-04-16T06:09:09.711Z,100861.78
2023-04-16T06:11:43.379Z,100861.50
2023-04-16T06:14:11.661Z,100835.16
2023-04-16T06:16:48.574Z,100863.72
2023-04-16T06:19:18.123Z,100852.66
2023-04-16T06:21:47.636Z,100844.81
2023-04-16T06:24:15.151Z,100809.38
2023-04-16T06:26:44.715Z,100861.47
2023-04-16T06:29:12.040Z,100864.00
2023-04-16T06:31:39.347Z,100877.03
2023-04-16T06:34:06.203Z,100839.06
2023-04-16T06:36:44.772Z,100849.69
2023-04-16T06:39:13.757Z,100849.09
2023-04-16T06:41:40.546Z,100872.47
2023-04-16T06:44:08.109Z,100870.09
2023-04-16T06:46:34.851Z,100809.47
2023-04-16T06:49:01.867Z,100865.59
2023-04-16T06:51:44.827Z,100833.69
2023-04-16T06:54:14.814Z,100851.91
2023-04-16T06:56:51.704Z,100871.75
2023-04-16T06:59:18.607Z,100880.13
2023-04-16T07:01:59.022Z,100857.19
2023-04-16T07:04:28.814Z,100691.06
2023-04-16T07:07:05.404Z,100879.84
2023-04-16T07:09:32.408Z,100872.25
2023-04-16T07:11:59.194Z,100833.31
2023-04-16T07:14:44.930Z,100883.72
2023-04-16T07:17:14.696Z,100871.34
2023-04-16T07:19:44.831Z,100864.78
2023-04-16T07:22:18.677Z,100881.97
2023-04-16T07:24:48.118Z,100857.19
2023-04-16T07:27:19.414Z,100867.34
2023-04-16T07:29:46.273Z,100888.59
2023-04-16T07:32:16.138Z,100882.88
2023-04-16T07:34:46.246Z,100650.28
2023-04-16T07:37:16.586Z,100772.00
2023-04-16T07:39:46.082Z,100861.50
2023-04-16T07:42:16.007Z,100884.69
2023-04-16T07:44:43.116Z,100898.91
2023-04-16T07:47:10.160Z,100895.88
2023-04-16T07:49:36.892Z,100859.63
2023-04-16T07:52:03.571Z,100898.84
2023-04-16T07:54:30.782Z,100896.59
2023-04-16T07:57:07.201Z,100895.19
2023-04-16T07:59:39.414Z,100896.72
2023-04-16T08:02:14.539Z,100902.91
2023-04-16T08:05:07.021Z,100907.19
2023-04-16T08:07:37.945Z,100903.06
2023-04-16T08:10:05.884Z,100907.41
2023-04-16T08:12:32.913Z,100913.75
2023-04-16T08:15:03.165Z,100898.13
2023-04-16T08:17:35.608Z,100901.16
2023-04-16T08:20:08.796Z,100908.19
2023-04-16T08:22:35.836Z,100921.94
2023-04-16T08:25:12.300Z,100888.88
2023-04-16T08:27:41.595Z,100916.28
2023-04-16T08:30:22.779Z,100816.66
2023-04-16T08:32:53.094Z,100894.97
2023-04-16T08:35:19.936Z,100926.59
2023-04-16T08:37:56.104Z,100912.97
2023-04-16T08:40:24.870Z,100923.84
2023-04-16T08:43:04.930Z,100927.41
2023-04-16T08:45:35.020Z,100914.81
2023-04-16T08:48:06.590Z,100817.19
2023-04-16T08:50:35.805Z,100921.50
2023-04-16T08:53:21.859Z,100907.22
2023-04-16T08:55:50.657Z,100913.47
2023-04-16T08:58:22.921Z,100914.75
2023-04-16T09:00:50.030Z,100921.97
2023-04-16T09:03:17.057Z,100875.00
2023-04-16T09:05:49.854Z,100836.88
2023-04-16T09:08:25.083Z,100771.19
2023-04-16T09:10:56.153Z,100926.75
2023-04-16T09:13:26.054Z,100866.81
2023-04-16T09:16:01.863Z,100920.19
2023-04-16T09:18:38.884Z,100921.78
2023-04-16T09:21:06.053Z,100812.38
2023-04-16T09:23:38.743Z,100926.34
2023-04-16T09:26:12.140Z,100901.25
2023-04-16T09:28:46.997Z,100853.31
2023-04-16T09:31:18.494Z,100915.53
2023-04-16T09:34:09.228Z,100874.50
2023-04-16T09:36:39.317Z,100889.09
2023-04-16T09:39:20.158Z,100909.03
2023-04-16T09:41:55.514Z,100903.84
2023-04-16T09:44:37.657Z,100924.44
2023-04-16T09:47:12.013Z,100890.09
2023-04-16T09:49:50.983Z,100896.78
2023-04-16T09:52:27.112Z,100891.94
2023-04-16T09:55:00.166Z,100846.53
2023-04-16T09:57:27.330Z,100914.44
2023-04-16T09:59:59.539Z,100890.97
2023-04-16T10:02:30.232Z,100876.88
2023-04-16T10:05:00.593Z,100818.44
2023-04-16T10:07:35.027Z,100845.34
2023-04-16T10:10:08.484Z,100911.66
2023-04-16T10:12:37.535Z,100838.81
2023-04-16T10:15:05.180Z,100828.44
2023-04-16T10:17:32.349Z,100770.19
2023-04-16T10:20:06.509Z,100719.94
2023-04-16T10:22:39.921Z,100844.16
2023-04-16T10:25:17.064Z,100792.22
2023-04-16T10:27:52.224Z,100905.09
2023-04-16T10:30:22.498Z,100733.50
2023-04-16T10:32:51.126Z,100901.84
2023-04-16T10:35:28.582Z,100837.13
2023-04-16T10:38:44.074Z,100861.03
2023-04-16T10:41:06.021Z,100884.69
2023-04-16T10:43:44.326Z,100839.06
2023-04-16T10:46:23.201Z,100921.84
2023-04-16T10:48:53.633Z,100826.78
2023-04-16T10:51:38.949Z,100903.69
2023-04-16T10:54:08.738Z,100916.03
2023-04-16T10:56:38.504Z,100913.25
2023-04-16T10:59:11.220Z,100906.38
2023-04-16T11:01:43.951Z,100914.16
2023-04-16T11:04:20.237Z,100911.25
2023-04-16T11:07:15.585Z,100906.84
2023-04-16T11:10:09.266Z,100906.81
2023-04-16T11:12:54.238Z,100899.81
2023-04-16T11:15:37.997Z,100900.19
2023-04-16T11:18:17.386Z,100779.53
2023-04-16T11:20:44.530Z,100866.72
2023-04-16T11:23:13.520Z,100751.59
2023-04-16T11:25:40.338Z,100880.69
2023-04-16T11:28:37.335Z,100738.69
2023-04-16T11:31:13.899Z,100884.53
2023-04-16T11:33:41.665Z,100841.16
2023-04-16T11:36:08.533Z,100901.28
2023-04-16T11:38:41.180Z,100874.25
2023-04-16T11:41:08.737Z,100800.50
2023-04-16T11:43:42.949Z,100814.94
2023-04-16T11:46:26.405Z,100857.91
2023-04-16T11:49:04.352Z,100898.84
2023-04-16T11:51:40.272Z,100793.97
2023-04-16T11:54:10.349Z,100747.19
2023-04-16T11:56:48.030Z,100824.06
2023-04-16T11:59:24.900Z,100882.94
2023-04-16T12:01:56.089Z,100854.88
2023-04-16T12:04:36.319Z,100836.97
2023-04-16T12:07:14.141Z,100872.22
2023-04-16T12:09:42.970Z,100864.38
2023-04-16T12:12:27.548Z,100887.94
2023-04-16T12:14:57.064Z,100902.81
2023-04-16T12:17:24.502Z,100881.22
2023-04-16T12:20:02.481Z,100884.78
2023-04-16T12:22:37.192Z,100825.69
2023-04-16T12:25:12.813Z,100672.41
2023-04-16T12:28:03.484Z,100806.31
2023-04-16T12:30:33.504Z,100853.72
2023-04-16T12:36:47.615Z,100880.63
2023-04-16T12:39:20.469Z,100804.63
2023-04-16T12:42:08.123Z,100806.25
2023-04-16T12:44:43.772Z,100674.84
2023-04-16T12:47:32.369Z,100704.72
2023-04-16T12:50:14.097Z,100712.16
2023-04-16T12:52:46.574Z,100879.22
2023-04-16T12:55:16.706Z,100743.44
2023-04-16T12:57:43.552Z,100708.69
2023-04-16T13:00:17.656Z,100739.53
2023-04-16T13:02:44.525Z,100803.56
2023-04-16T13:05:19.473Z,100806.06
2023-04-16T13:07:52.097Z,100796.66
2023-04-16T13:10:21.368Z,100871.63
2023-04-16T13:12:52.661Z,100876.25
2023-04-16T13:15:19.498Z,100868.94
2023-04-16T13:17:51.969Z,100854.94
2023-04-16T13:20:30.073Z,100733.31
2023-04-16T13:22:57.137Z,100849.41
2023-04-16T13:25:23.947Z,100841.88
2023-04-16T13:28:00.814Z,100775.63
2023-04-16T13:30:30.665Z,100832.53
2023-04-16T13:33:00.731Z,100841.59
2023-04-16T13:35:31.345Z,100840.47
2023-04-16T13:37:58.096Z,100845.69
2023-04-16T13:40:37.047Z,100802.00
2023-04-16T13:43:07.808Z,100837.31
2023-04-16T13:45:37.688Z,100849.91
2023-04-16T13:48:07.980Z,100854.84
2023-04-16T13:50:37.882Z,100807.41
2023-04-16T13:53:07.617Z,100837.06
2023-04-16T13:55:45.148Z,100867.53
2023-04-16T13:58:20.502Z,100818.16
2023-04-16T14:00:53.068Z,100788.69
2023-04-16T14:06:11.052Z,100856.50
2023-04-16T14:08:44.479Z,100838.34
2023-04-16T14:11:12.846Z,100838.53
2023-04-16T14:13:54.897Z,100807.53
2023-04-16T14:16:21.699Z,100733.38
2023-04-16T14:18:48.539Z,100830.97
2023-04-16T14:21:20.296Z,100834.16
2023-04-16T14:23:50.075Z,100774.94
2023-04-16T14:26:17.062Z,100820.56
2023-04-16T14:28:45.614Z,100687.72
2023-04-16T14:31:14.991Z,100797.38
2023-04-16T14:33:42.059Z,100821.59
2023-04-16T14:36:09.057Z,100800.00
2023-04-16T14:38:49.778Z,100844.38
2023-04-16T14:41:18.944Z,100762.69
2023-04-16T14:43:49.593Z,100703.44
2023-04-16T14:46:22.913Z,100649.97
2023-04-16T14:48:50.023Z,100845.81
2023-04-16T14:51:16.796Z,100634.91
2023-04-16T14:53:44.127Z,100809.75
2023-04-16T14:56:20.006Z,100816.16
2023-04-16T14:58:55.986Z,100843.31
2023-04-16T15:01:26.215Z,100767.09
2023-04-16T15:03:59.179Z,100842.13
2023-04-16T15:06:28.062Z,100841.47
2023-04-16T15:08:55.056Z,100761.13
2023-04-16T15:11:23.108Z,100689.63
2023-04-16T15:13:59.667Z,100695.84
2023-04-16T15:16:26.633Z,100840.38
2023-04-16T15:18:55.972Z,100838.69
2023-04-16T15:21:23.009Z,100849.63
2023-04-16T15:23:55.919Z,100859.47
2023-04-16T15:26:26.755Z,100825.63
2023-04-16T15:28:53.600Z,100861.88
2023-04-16T15:31:26.754Z,100868.75
2023-04-16T15:33:54.674Z,100829.56
2023-04-16T15:36:40.030Z,100872.19
2023-04-16T15:39:53.287Z,100871.75
2023-04-16T15:42:46.395Z,100796.09
2023-04-16T15:45:21.348Z,100646.84
2023-04-16T15:47:58.048Z,100874.97
2023-04-16T15:50:25.900Z,100734.94
2023-04-16T15:52:53.267Z,100667.09
2023-04-16T15:55:32.628Z,100740.31
2023-04-16T15:58:01.959Z,100883.31
2023-04-16T16:00:41.295Z,100698.44
2023-04-16T16:03:10.891Z,100729.44
2023-04-16T16:06:03.725Z,100894.56
2023-04-16T16:08:31.014Z,100789.16
2023-04-16T16:11:00.881Z,100816.56
2023-04-16T16:13:31.158Z,100835.47
2023-04-16T16:16:07.166Z,100810.47
2023-04-16T16:18:34.079Z,100827.22
2023-04-16T16:21:05.792Z,100889.47
2023-04-16T16:26:24.177Z,100692.34
2023-04-16T16:31:44.574Z,100775.34
2023-04-16T16:34:21.452Z,100760.69
2023-04-16T16:36:52.404Z,100866.41
2023-04-16T16:39:25.072Z,100919.19
2023-04-16T16:41:56.839Z,100764.03
2023-04-16T16:44:33.218Z,100915.94
2023-04-16T16:47:21.984Z,100917.75
2023-04-16T16:49:50.129Z,100899.63
2023-04-16T16:52:28.032Z,100897.09
2023-04-16T16:55:02.114Z,100920.44
2023-04-16T16:57:43.076Z,100676.66
2023-04-16T17:03:09.501Z,100724.44
2023-04-16T17:08:31.599Z,100863.94
2023-04-16T17:11:03.174Z,100727.28
2023-04-16T17:13:38.337Z,100717.47
2023-04-16T17:19:06.472Z,100764.13
2023-04-16T17:21:42.543Z,100919.25
2023-04-16T17:24:10.921Z,100888.50
2023-04-16T17:26:48.391Z,100944.03
2023-04-16T17:29:17.981Z,100945.75
2023-04-16T17:31:46.151Z,100873.53
2023-04-16T17:37:03.164Z,100964.75
2023-04-16T17:39:30.255Z,100911.72
2023-04-16T17:42:01.636Z,100966.31
2023-04-16T17:44:38.079Z,100948.72
2023-04-16T17:47:07.332Z,100978.72
2023-04-16T17:49:37.671Z,100865.00
2023-04-16T17:52:10.163Z,100948.75
2023-04-16T17:54:42.898Z,100868.84
2023-04-16T17:57:12.822Z,100885.59
2023-04-16T17:59:52.256Z,100911.38
2023-04-16T18:02:30.176Z,100910.19
2023-04-16T18:05:02.233Z,100956.47
2023-04-16T18:07:36.792Z,100985.75
2023-04-16T18:10:18.934Z,100974.06
2023-04-16T18:12:47.789Z,100955.94
2023-04-16T18:15:14.569Z,100939.00
2023-04-16T18:17:41.950Z,100849.72
2023-04-16T18:20:13.869Z,101000.22
2023-04-16T18:22:43.642Z,101001.53
2023-04-16T18:25:16.133Z,100964.81
2023-04-16T18:27:44.836Z,100995.69
2023-04-16T18:33:03.684Z,100995.47
2023-04-16T18:35:30.975Z,100989.28
2023-04-16T18:38:00.598Z,100994.50
2023-04-16T18:40:29.375Z,101002.34
2023-04-16T18:43:00.783Z,101012.94
2023-04-16T18:45:40.061Z,100989.94
2023-04-16T18:48:06.786Z,100968.16
2023-04-16T18:50:40.998Z,101008.22
2023-04-16T18:53:11.030Z,101008.50
2023-04-16T18:55:40.507Z,100981.00
2023-04-16T18:58:30.390Z,100986.69
2023-04-16T19:01:01.397Z,100992.06
2023-04-16T19:03:36.547Z,101025.41
2023-04-16T19:06:08.183Z,100894.75
2023-04-16T19:08:35.157Z,100948.41
2023-04-16T19:11:04.556Z,101025.22
2023-04-16T19:13:35.312Z,100995.00
2023-04-16T19:16:11.733Z,100976.53
2023-04-16T19:18:40.285Z,101023.50
2023-04-16T19:21:11.055Z,101024.13
2023-04-16T19:23:38.207Z,101013.06
2023-04-16T19:26:14.131Z,101012.44
2023-04-16T19:28:43.756Z,101019.44
2023-04-16T19:31:10.590Z,100818.19
2023-04-16T19:33:40.299Z,101012.84
2023-04-16T19:36:19.566Z,100915.03
2023-04-16T19:38:50.470Z,100903.59
2023-04-16T19:41:23.593Z,100930.78
2023-04-16T19:43:54.808Z,100946.03
2023-04-16T19:46:21.597Z,101001.84
2023-04-16T19:51:38.901Z,100994.81
2023-04-16T19:54:07.184Z,100763.84
2023-04-16T19:56:38.604Z,101005.22
2023-04-16T19:59:06.741Z,101024.16
2023-04-16T20:01:38.206Z,101031.97
2023-04-16T20:04:07.138Z,101005.13
2023-04-16T20:06:34.492Z,101021.06
2023-04-16T20:09:12.858Z,100891.34
2023-04-16T20:11:51.253Z,100999.88
2023-04-16T20:17:02.352Z,101003.53
2023-04-16T20:19:48.841Z,101016.44
2023-04-16T20:22:18.910Z,100976.53
2023-04-16T20:24:50.618Z,101019.81
2023-04-16T20:27:26.854Z,101010.31
2023-04-16T20:29:53.684Z,100975.88
2023-04-16T20:32:35.021Z,101019.41
2023-04-16T20:35:07.496Z,100966.38
2023-04-16T20:37:38.101Z,101017.38
2023-04-16T20:40:09.746Z,101016.56
2023-04-16T20:42:41.032Z,100928.88
2023-04-16T20:45:12.124Z,101034.06
2023-04-16T20:47:39.010Z,100994.53
2023-04-16T20:50:07.618Z,100994.22
2023-04-16T20:52:51.416Z,101025.00
2023-04-16T20:55:26.606Z,100879.03
2023-04-16T20:57:54.423Z,100944.44
2023-04-16T21:00:24.605Z,101022.28
2023-04-16T21:02:51.804Z,101032.78
2023-04-16T21:05:24.471Z,100978.16
2023-04-16T21:08:01.541Z,100940.53
2023-04-16T21:10:31.865Z,101025.78
2023-04-16T21:12:59.326Z,100994.66
2023-04-16T21:15:26.374Z,101027.13
2023-04-16T21:17:54.626Z,100869.03
2023-04-16T21:20:33.924Z,100921.75
2023-04-16T21:23:03.062Z,100848.75
2023-04-16T21:25:36.013Z,100960.00
2023-04-16T21:28:06.438Z,101021.53
2023-04-16T21:30:33.345Z,100927.53
2023-04-16T21:33:00.201Z,100987.03
2023-04-16T21:35:26.998Z,101018.19
2023-04-16T21:37:53.744Z,100843.03
2023-04-16T21:40:23.541Z,101019.31
2023-04-16T21:42:52.405Z,101028.63
2023-04-16T21:45:24.731Z,101027.28
2023-04-16T21:47:55.893Z,101019.88
2023-04-16T21:50:26.208Z,101006.31
2023-04-16T21:52:55.356Z,100991.59
2023-04-16T21:55:22.360Z,101028.50
2023-04-16T21:57:52.302Z,100998.28
2023-04-16T22:00:21.930Z,101021.56
2023-04-16T22:02:53.560Z,100952.41
2023-04-16T22:05:24.326Z,100993.84
2023-04-16T22:07:53.490Z,100996.38
2023-04-16T22:10:22.203Z,101031.81
2023-04-16T22:12:56.777Z,101020.34
2023-04-16T22:15:32.128Z,101015.97
2023-04-16T22:18:01.339Z,101018.75
2023-04-16T22:20:39.106Z,101006.84
2023-04-16T22:23:06.927Z,101021.88
2023-04-16T22:25:34.784Z,101028.31
2023-04-16T22:28:03.565Z,101021.81
2023-04-16T22:30:30.571Z,101005.28
2023-04-16T22:32:59.896Z,101025.75
2023-04-16T22:35:30.004Z,101023.84
2023-04-16T22:38:01.437Z,101027.94
2023-04-16T22:40:31.998Z,100996.41
2023-04-16T22:43:01.774Z,100901.63
2023-04-16T22:45:28.813Z,101018.56
2023-04-16T22:47:57.651Z,100992.00
2023-04-16T22:50:24.857Z,101014.00
2023-04-16T22:53:00.617Z,101024.97
2023-04-16T22:55:33.459Z,101007.19
2023-04-16T22:58:00.569Z,100973.16
2023-04-16T23:00:30.562Z,101022.19
2023-04-16T23:02:59.900Z,101023.06
2023-04-16T23:05:26.790Z,100998.00
2023-04-16T23:08:09.186Z,101007.38
2023-04-16T23:10:40.026Z,101026.53
2023-04-16T23:13:08.440Z,100990.25
2023-04-16T23:15:42.074Z,101004.53
2023-04-16T23:18:20.850Z,101019.69
2023-04-16T23:20:53.655Z,101010.75
2023-04-16T23:23:23.381Z,100932.03
2023-04-16T23:25:55.274Z,101025.63
2023-04-16T23:28:22.514Z,100990.59
2023-04-16T23:30:53.250Z,101027.84
2023-04-16T23:33:24.661Z,101018.28
2023-04-16T23:35:54.467Z,101007.63
2023-04-16T23:38:28.585Z,101010.47
2023-04-16T23:40:58.351Z,101012.44
2023-04-16T23:43:45.961Z,101012.88
2023-04-16T23:46:14.185Z,101002.94
2023-04-16T23:48:45.142Z,100997.34
2023-04-16T23:51:20.498Z,101021.19
2023-04-16T23:53:53.306Z,101018.97
2023-04-16T23:56:20.198Z,101027.22
2023-04-16T23:58:51.322Z,101022.34
